Charlotte Hall, Maryland
Current Conditions -  °F | °C
As of 8:11 AM on Thursday 27 Nov 2014 (Local Time) from K2W6 Reporting Station
Broken Clouds Broken Clouds  
Wind Chill: 34°   Ceiling: 5000
Heat Index: 34°   Visibility: 10mi
Dew Point: 32°   Wind: 0mph
Humidity: 93%   Direction: NA
Pressure: 30.06"   Gusts: NA
Location:  38.48°N, 76.79°W
Report Text: K2W6 271311Z AUTO 00000KT 10SM BKN050 01/00 A3006 RMK AO1
Loading
Personal Weather Stations






























Interactive Weather Map New forecast layout! Learn more

10-Day Weather Forecast

Advertisements
Track Severe Weather on mobile